KMGJ/MGJ METAR and TAF weather

Enter ICAO airport designator
Station Type Date Time Source
KMGJ METAR 2022/05/26 04:54 UTC NOAA

KMGJ 260454Z AUTO 16004KT 10SM CLR 11/06 A3033 RMK AO2 SLP271 T01060056 402280072


Station Type Date Time Source
KMGJ Decoded METAR 2022/05/26 04:54 UTC NOAA

MONTGOMERY ORANGE CO AIRPORT, NY, United States (KMGJ) 41-31N 074-16W 108M
May 26, 2022 - 12:54 AM EDT / 2022.05.26 0454 UTC
Wind: from the SSE (160 degrees) at 5 MPH (4 KT):0
Visibility: 10 mile(s):0
Sky conditions: clear
Temperature: 51.1 F (10.6 C)
Dew Point: 42.1 F (5.6 C)
Relative Humidity: 71%
Pressure (altimeter): 30.33 in. Hg (1027 hPa)
ob: KMGJ 260454Z AUTO 16004KT 10SM CLR 11/06 A3033 RMK AO2 SLP271 T01060056 402280072
cycle: 5

Station Type Date Time Source
KMGJ TAF UTC NOAA

Error!

Example: see airport list